Time;durP1;ratioP1;P1;durP2;ratioP2;P2;SDS_P1;SDS_P2;PMS_P1;PMS_P2;Temp;Humidity;BMP_temperature;BMP_pressure;BME280_temperature;BME280_humidity;BME280_pressure;Samples;Min_cycle;Max_cycle;Signal;HPM_P1;HPM_P2
2022/04/04 00:01:44;;;;;;;9.33;8.30;;;;;;;-0.26;58.56;94315.14;1649870;86;21108;-55
2022/04/04 00:04:11;;;;;;;13.08;9.50;;;;;;;-0.31;58.69;94311.47;1650970;86;21162;-54
2022/04/04 00:06:40;;;;;;;20.82;12.07;;;;;;;-0.35;58.93;94311.48;1651386;85;21156;-53
2022/04/04 00:09:09;;;;;;;22.87;14.65;;;;;;;-0.40;59.17;94316.51;1647911;85;21596;-53
2022/04/04 00:11:37;;;;;;;24.67;19.50;;;;;;;-0.47;59.38;94312.45;1642688;86;21517;-54
2022/04/04 00:14:06;;;;;;;20.82;13.62;;;;;;;-0.49;59.87;94322.30;1647424;86;21598;-55
2022/04/04 00:16:34;;;;;;;16.37;10.98;;;;;;;-0.47;59.79;94317.84;1646772;85;21270;-55
2022/04/04 00:19:05;;;;;;;18.30;10.23;;;;;;;-0.49;59.80;94319.61;1651361;85;20998;-56
2022/04/04 00:21:33;;;;;;;16.97;10.20;;;;;;;-0.58;60.09;94315.75;1648429;86;21601;-54
2022/04/04 00:24:01;;;;;;;12.63;9.48;;;;;;;-0.65;60.47;94321.14;1641718;85;21585;-54
2022/04/04 00:26:30;;;;;;;11.40;9.10;;;;;;;-0.69;60.67;94319.02;1646867;86;21064;-55
2022/04/04 00:28:58;;;;;;;14.43;9.50;;;;;;;-0.78;60.86;94318.05;1648782;86;21240;-54
2022/04/04 00:31:26;;;;;;;14.70;9.90;;;;;;;-0.80;61.02;94318.27;1645106;86;21070;-54
2022/04/04 00:33:54;;;;;;;30.75;13.00;;;;;;;-0.84;60.82;94324.22;1649399;86;21112;-54
2022/04/04 00:36:22;;;;;;;74.35;27.87;;;;;;;-0.87;60.96;94322.30;1650826;85;21561;-54
2022/04/04 00:38:49;;;;;;;60.48;25.05;;;;;;;-0.89;61.05;94321.91;1649014;86;21157;-53
2022/04/04 00:41:17;;;;;;;53.58;23.60;;;;;;;-0.95;60.92;94322.87;1641972;86;21502;-54
2022/04/04 00:43:45;;;;;;;58.87;24.30;;;;;;;-0.98;61.31;94321.53;1650669;85;21652;-54
2022/04/04 00:46:13;;;;;;;54.48;23.32;;;;;;;-1.03;61.17;94317.28;1620702;85;22170;-54
2022/04/04 00:48:40;;;;;;;40.75;21.12;;;;;;;-1.04;61.55;94313.61;1649939;86;20982;-52
2022/04/04 00:51:07;;;;;;;36.98;20.27;;;;;;;-1.00;61.62;94321.16;1650149;86;21125;-55
2022/04/04 00:53:35;;;;;;;26.12;16.45;;;;;;;-0.98;61.62;94320.94;1650654;86;21149;-53
2022/04/04 00:56:04;;;;;;;19.73;13.48;;;;;;;-0.98;61.85;94321.53;1649454;86;20978;-53
2022/04/04 00:58:31;;;;;;;18.45;12.55;;;;;;;-1.03;61.78;94319.20;1652083;86;21585;-54
2022/04/04 01:00:58;;;;;;;16.62;11.30;;;;;;;-1.13;62.02;94321.31;1650045;86;21060;-54
2022/04/04 01:03:26;;;;;;;24.35;14.63;;;;;;;-1.16;62.22;94323.44;1650220;86;21119;-53
2022/04/04 01:05:57;;;;;;;23.77;13.75;;;;;;;-1.15;62.39;94320.94;1648287;85;20964;-55
2022/04/04 01:08:24;;;;;;;26.62;14.58;;;;;;;-1.13;62.47;94322.67;1643325;85;21086;-53
2022/04/04 01:10:52;;;;;;;24.87;13.70;;;;;;;-1.15;62.51;94323.63;1646121;86;21059;-53
2022/04/04 01:13:20;;;;;;;17.62;13.10;;;;;;;-1.20;62.73;94323.98;1651563;86;21026;-53
2022/04/04 01:15:49;;;;;;;15.65;11.50;;;;;;;-1.19;62.95;94325.53;1649863;86;21212;-54
2022/04/04 01:18:17;;;;;;;19.77;12.68;;;;;;;-1.14;62.95;94322.48;1645402;86;21921;-54
2022/04/04 01:20:44;;;;;;;27.30;16.20;;;;;;;-1.11;62.84;94323.05;1648255;86;21454;-54
2022/04/04 01:23:14;;;;;;;26.33;16.27;;;;;;;-1.15;62.50;94322.28;1644400;86;20982;-54
2022/04/04 01:25:42;;;;;;;25.95;13.45;;;;;;;-1.24;62.51;94327.27;1629786;86;20987;-53
2022/04/04 01:28:10;;;;;;;24.80;15.50;;;;;;;-1.28;62.51;94329.19;1645451;85;21137;-54
2022/04/04 01:30:38;;;;;;;26.75;15.75;;;;;;;-1.38;62.83;94323.17;1627590;86;21848;-54
2022/04/04 01:33:06;;;;;;;21.37;13.80;;;;;;;-1.41;63.31;94323.94;1629886;86;21096;-55
2022/04/04 01:35:38;;;;;;;42.27;21.48;;;;;;;-1.42;63.10;94326.45;1636066;86;21402;-54
2022/04/04 01:38:02;;;;;;;52.15;25.02;;;;;;;-1.47;63.24;94330.28;1643434;86;21030;-53
2022/04/04 01:40:30;;;;;;;32.85;17.95;;;;;;;-1.55;63.33;94331.42;1648281;86;21678;-52
2022/04/04 01:42:57;;;;;;;16.07;11.75;;;;;;;-1.56;63.54;94326.40;1641857;85;21164;-54
2022/04/04 01:48:10;;;;;;;17.75;10.15;;;;;;;-1.69;63.72;94320.59;1640694;85;21143;-54
2022/04/04 01:50:38;;;;;;;14.63;10.30;;;;;;;-1.69;63.92;94322.52;1635241;86;21022;-53
2022/04/04 01:55:52;;;;;;;16.97;10.82;;;;;;;-1.81;63.97;94336.33;1634146;86;21779;-53
2022/04/04 01:58:19;;;;;;;14.05;10.75;;;;;;;-1.82;64.17;94329.95;1642141;86;21309;-53
2022/04/04 02:00:46;;;;;;;14.58;10.30;;;;;;;-1.81;64.10;94338.27;1654002;86;21001;-53
2022/04/04 02:03:14;;;;;;;18.07;10.65;;;;;;;-1.82;64.01;94340.18;1651289;85;21012;-54
2022/04/04 02:05:42;;;;;;;17.75;11.03;;;;;;;-1.83;64.09;94336.50;1648779;85;21030;-54
2022/04/04 02:08:11;;;;;;;13.25;11.48;;;;;;;-1.89;64.19;94339.38;1650545;85;21010;-53
2022/04/04 02:10:39;;;;;;;16.52;11.10;;;;;;;-1.96;64.43;94346.84;1642343;86;21089;-52
2022/04/04 02:13:08;;;;;;;18.15;11.20;;;;;;;-2.09;64.72;94340.25;1646600;86;21060;-53
2022/04/04 02:15:35;;;;;;;15.93;10.35;;;;;;;-2.14;65.27;94344.63;1648375;86;21546;-53
2022/04/04 02:18:03;;;;;;;13.13;10.38;;;;;;;-2.13;65.46;94348.87;1650393;86;21701;-55
2022/04/04 02:20:31;;;;;;;15.48;10.28;;;;;;;-2.08;65.47;94345.84;1640874;86;21968;-53
2022/04/04 02:23:00;;;;;;;13.28;10.55;;;;;;;-2.03;65.37;94356.81;1647834;86;20967;-53
2022/04/04 02:25:28;;;;;;;27.37;16.57;;;;;;;-2.02;65.23;94349.71;1632045;85;21105;-53
2022/04/04 02:27:55;;;;;;;16.35;13.00;;;;;;;-2.08;65.26;94349.88;1650072;85;20959;-54
2022/04/04 02:30:22;;;;;;;16.15;11.55;;;;;;;-2.11;65.41;94349.26;1651882;86;20947;-54
2022/04/04 02:32:50;;;;;;;14.15;11.78;;;;;;;-2.12;65.55;94355.80;1645225;86;21156;-53
2022/04/04 02:35:18;;;;;;;26.75;17.50;;;;;;;-2.13;65.61;94350.22;1652017;86;21180;-54
2022/04/04 02:37:47;;;;;;;21.45;13.05;;;;;;;-2.17;65.53;94358.86;1651729;86;21129;-54
2022/04/04 02:40:14;;;;;;;33.83;17.60;;;;;;;-2.25;66.06;94355.94;1647020;86;21593;-53
2022/04/04 02:42:43;;;;;;;51.60;25.37;;;;;;;-2.20;66.47;94353.44;1649229;86;21113;-54
2022/04/04 02:45:10;;;;;;;68.52;33.67;;;;;;;-2.16;66.38;94357.70;1647005;85;21194;-54
2022/04/04 02:47:38;;;;;;;39.05;24.37;;;;;;;-2.17;66.40;94348.08;1653716;84;21240;-54
2022/04/04 02:50:08;;;;;;;26.05;18.00;;;;;;;-2.19;66.37;94353.08;1656236;84;21054;-54
2022/04/04 02:52:37;;;;;;;18.35;12.85;;;;;;;-2.18;66.39;94354.63;1660387;84;20965;-53
2022/04/04 02:57:55;;;;;;;20.60;13.30;;;;;;;-2.15;66.09;94355.20;1643229;85;21806;-54
2022/04/04 03:00:26;;;;;;;19.17;13.03;;;;;;;-2.23;65.96;94361.72;1643592;85;20985;-52
2022/04/04 03:02:55;;;;;;;20.32;13.48;;;;;;;-2.32;66.34;94366.64;1630717;86;21466;-54
2022/04/04 03:05:22;;;;;;;14.25;11.83;;;;;;;-2.33;66.58;94369.73;1598558;88;21007;-52
2022/04/04 03:07:50;;;;;;;15.45;12.45;;;;;;;-2.36;66.52;94373.93;1616045;88;21042;-55
2022/04/04 03:10:17;;;;;;;38.98;20.25;;;;;;;-2.44;66.56;94371.56;1610410;88;21762;-54
2022/04/04 03:12:48;;;;;;;73.55;36.42;;;;;;;-2.47;66.65;94373.66;1597516;88;21004;-53
2022/04/04 03:15:19;;;;;;;80.40;40.08;;;;;;;-2.50;66.73;94369.78;1604654;88;21034;-54
2022/04/04 03:17:50;;;;;;;46.60;27.10;;;;;;;-2.49;66.71;94374.02;1609689;88;21098;-54
2022/04/04 03:20:19;;;;;;;45.30;23.62;;;;;;;-2.46;66.91;94376.55;1601347;87;21070;-54
2022/04/04 03:22:49;;;;;;;42.88;23.62;;;;;;;-2.41;66.88;94370.25;1604874;89;21273;-55
2022/04/04 03:25:17;;;;;;;39.23;21.75;;;;;;;-2.44;66.63;94369.66;1603997;88;21426;-53
2022/04/04 03:27:45;;;;;;;42.78;23.07;;;;;;;-2.48;66.77;94378.27;1584234;89;21018;-53
2022/04/04 03:30:15;;;;;;;31.95;19.57;;;;;;;-2.47;66.84;94377.70;1584057;89;21111;-53
2022/04/04 03:32:42;;;;;;;39.25;20.97;;;;;;;-2.45;66.85;94376.75;1578600;89;21541;-55
2022/04/04 03:35:10;;;;;;;16.82;13.40;;;;;;;-2.39;67.06;94381.42;1618942;88;21215;-53
2022/04/04 03:37:38;;;;;;;22.65;14.75;;;;;;;-2.37;66.69;94383.72;1624136;88;21137;-54
2022/04/04 03:40:09;;;;;;;27.80;16.02;;;;;;;-2.39;66.86;94380.63;1617363;88;21023;-54
2022/04/04 03:42:37;;;;;;;19.32;13.48;;;;;;;-2.40;66.83;94385.27;1612592;86;21044;-54
2022/04/04 03:45:06;;;;;;;21.57;14.18;;;;;;;-2.38;66.86;94392.39;1622834;88;21463;-53
2022/04/04 03:47:35;;;;;;;21.57;13.78;;;;;;;-2.43;66.58;94390.05;1607801;88;20967;-54
2022/04/04 03:50:02;;;;;;;23.18;15.53;;;;;;;-2.48;66.63;94390.38;1605618;88;21388;-53
2022/04/04 03:52:30;;;;;;;23.42;15.98;;;;;;;-2.52;66.88;94391.52;1610733;88;20986;-57
2022/04/04 03:54:58;;;;;;;21.52;14.65;;;;;;;-2.54;67.01;94393.22;1597912;89;21074;-54
2022/04/04 03:57:25;;;;;;;21.65;13.48;;;;;;;-2.52;67.21;94395.56;1612093;87;21035;-55
2022/04/04 03:59:53;;;;;;;22.27;14.45;;;;;;;-2.48;67.35;94399.80;1603834;88;21174;-54
2022/04/04 04:02:20;;;;;;;34.88;16.02;;;;;;;-2.41;67.15;94394.48;1609913;88;21110;-53
2022/04/04 04:04:49;;;;;;;36.95;21.37;;;;;;;-2.40;67.14;94394.69;1610927;88;21020;-53
2022/04/04 04:07:18;;;;;;;41.65;22.55;;;;;;;-2.34;67.11;94397.22;1627384;88;21038;-54
2022/04/04 04:09:45;;;;;;;48.13;26.17;;;;;;;-2.33;67.03;94396.07;1624699;86;21043;-56
2022/04/04 04:12:15;;;;;;;88.50;43.48;;;;;;;-2.34;67.26;94394.52;1616394;88;21271;-55
2022/04/04 04:14:42;;;;;;;40.73;23.85;;;;;;;-2.31;67.21;94396.47;1607148;88;21014;-56
2022/04/04 04:17:10;;;;;;;44.18;24.12;;;;;;;-2.29;67.20;94391.48;1589885;88;21102;-54
2022/04/04 04:22:23;;;;;;;49.88;25.37;;;;;;;-2.19;67.46;94392.70;1604070;87;21065;-57
2022/04/04 04:24:50;;;;;;;41.98;22.77;;;;;;;-2.15;67.24;94388.12;1612431;88;21161;-54
2022/04/04 04:27:18;;;;;;;39.45;22.42;;;;;;;-2.20;67.11;94391.94;1617695;87;21102;-55
2022/04/04 04:29:47;;;;;;;40.25;23.00;;;;;;;-2.26;67.43;94400.17;1649769;85;20966;-56
2022/04/04 04:32:14;;;;;;;35.43;22.45;;;;;;;-2.27;67.36;94399.98;1655032;86;20990;-55
2022/04/04 04:34:46;;;;;;;36.50;21.02;;;;;;;-2.32;67.50;94414.36;1669584;85;21073;-55
2022/04/04 04:37:12;;;;;;;47.00;25.32;;;;;;;-2.33;67.46;94416.86;1671920;84;21161;-55
2022/04/04 04:39:40;;;;;;;46.63;24.85;;;;;;;-2.40;67.40;94416.23;1666725;85;21030;-56
2022/04/04 04:42:09;;;;;;;54.90;32.48;;;;;;;-2.49;67.99;94415.00;1648415;85;21046;-54
2022/04/04 04:44:37;;;;;;;66.95;37.90;;;;;;;-2.40;68.53;94424.31;1658016;85;21098;-55
2022/04/04 04:47:07;;;;;;;64.03;34.92;;;;;;;-2.34;68.40;94421.45;1637025;86;21069;-56
2022/04/04 04:49:35;;;;;;;93.97;52.10;;;;;;;-2.26;68.36;94420.38;1651335;85;21131;-55
2022/04/04 04:52:03;;;;;;;85.25;49.05;;;;;;;-2.26;68.31;94414.99;1655913;86;21027;-55
2022/04/04 04:54:31;;;;;;;68.12;38.58;;;;;;;-2.17;68.79;94424.86;1644594;85;21126;-55
2022/04/04 04:56:59;;;;;;;60.38;35.30;;;;;;;-2.09;68.42;94419.73;1637690;86;21038;-56
2022/04/04 04:59:27;;;;;;;60.67;35.30;;;;;;;-2.01;68.18;94418.62;1630119;86;21023;-55
2022/04/04 05:01:55;;;;;;;75.55;38.78;;;;;;;-1.94;68.22;94415.95;1642678;85;22101;-57
2022/04/04 05:04:22;;;;;;;65.95;34.13;;;;;;;-1.91;67.65;94415.23;1627442;85;21192;-57
2022/04/04 05:06:50;;;;;;;74.55;31.30;;;;;;;-1.91;67.90;94428.70;1636220;86;21653;-52
2022/04/04 05:09:17;;;;;;;73.57;41.08;;;;;;;-1.82;67.61;94429.13;1644995;85;21071;-54
2022/04/04 05:11:45;;;;;;;153.70;83.35;;;;;;;-1.83;67.48;94424.89;1628886;85;20979;-53
2022/04/04 05:14:16;;;;;;;101.85;50.63;;;;;;;-1.80;67.29;94426.83;1631164;86;21160;-56
2022/04/04 05:16:48;;;;;;;222.15;118.30;;;;;;;-1.81;67.03;94435.30;1628677;86;20974;-56
2022/04/04 05:19:19;;;;;;;122.35;65.57;;;;;;;-1.87;66.93;94438.92;1632437;85;21004;-56
2022/04/04 05:21:49;;;;;;;63.13;34.35;;;;;;;-1.86;66.86;94441.03;1641339;86;21058;-56
2022/04/04 05:24:16;;;;;;;48.42;28.90;;;;;;;-1.78;67.26;94429.16;1626985;85;21097;-56
2022/04/04 05:26:44;;;;;;;50.80;29.70;;;;;;;-1.59;67.24;94433.67;1622504;87;21205;-56
2022/04/04 05:29:11;;;;;;;41.58;22.65;;;;;;;-1.41;67.20;94435.31;1641444;86;21035;-55
2022/04/04 05:31:39;;;;;;;37.60;24.55;;;;;;;-1.19;66.80;94434.80;1638016;86;21059;-56
2022/04/04 05:34:07;;;;;;;40.33;24.52;;;;;;;-1.11;65.55;94436.39;1651742;84;21089;-56
2022/04/04 05:36:36;;;;;;;47.30;28.20;;;;;;;-1.18;65.37;94437.73;1651902;86;20986;-57
2022/04/04 05:39:06;;;;;;;37.28;21.23;;;;;;;-1.14;65.85;94428.47;1632273;85;21758;-54
2022/04/04 05:41:36;;;;;;;37.88;23.12;;;;;;;-1.01;65.18;94430.23;1638515;86;21476;-57
2022/04/04 05:44:04;;;;;;;42.88;23.77;;;;;;;-1.02;64.75;94425.44;1645418;86;21493;-57
2022/04/04 05:46:31;;;;;;;49.45;27.07;;;;;;;-1.04;64.92;94416.95;1588584;88;21033;-54
2022/04/04 05:49:00;;;;;;;54.85;28.45;;;;;;;-0.98;65.32;94422.75;1585789;88;21138;-57
2022/04/04 05:51:33;;;;;;;44.00;28.32;;;;;;;-0.89;64.92;94426.63;1592527;87;22050;-55
2022/04/04 05:54:02;;;;;;;39.18;23.98;;;;;;;-0.77;64.57;94428.95;1598806;86;20983;-57
2022/04/04 05:56:30;;;;;;;37.03;23.75;;;;;;;-0.60;64.33;94429.56;1616203;87;21634;-57
2022/04/04 05:58:57;;;;;;;32.63;21.50;;;;;;;-0.42;64.22;94424.95;1612413;87;21078;-55
2022/04/04 06:01:25;;;;;;;43.65;23.77;;;;;;;-0.23;63.73;94427.27;1595882;87;21121;-56
2022/04/04 06:03:52;;;;;;;39.65;22.32;;;;;;;-0.02;62.86;94425.14;1646314;85;21182;-57
2022/04/04 06:06:20;;;;;;;41.55;24.95;;;;;;;0.03;62.02;94422.23;1638539;85;21133;-56
2022/04/04 06:08:48;;;;;;;30.55;19.70;;;;;;;0.15;62.10;94422.41;1652624;85;21065;-56
2022/04/04 06:11:17;;;;;;;43.63;23.42;;;;;;;0.28;61.35;94427.05;1654142;84;21126;-56
2022/04/04 06:13:44;;;;;;;32.93;19.45;;;;;;;0.29;60.86;94429.94;1636547;85;21088;-59
2022/04/04 06:16:11;;;;;;;27.37;19.55;;;;;;;0.36;60.67;94427.20;1644136;85;21158;-62
2022/04/04 06:18:41;;;;;;;23.38;16.82;;;;;;;0.41;60.78;94437.63;1637836;84;21048;-60
2022/04/04 06:21:11;;;;;;;27.60;19.60;;;;;;;0.57;60.80;94431.80;1602621;86;21508;-58
2022/04/04 06:23:39;;;;;;;28.73;17.02;;;;;;;0.70;60.37;94432.33;1626960;85;21580;-59
2022/04/04 06:26:07;;;;;;;21.02;15.03;;;;;;;0.79;60.12;94434.02;1649280;85;21198;-59
2022/04/04 06:28:35;;;;;;;21.55;13.70;;;;;;;0.94;59.58;94434.16;1627911;84;21179;-62
2022/04/04 06:31:04;;;;;;;25.37;17.60;;;;;;;1.10;59.02;94434.48;1625713;86;21530;-60
2022/04/04 06:33:32;;;;;;;24.98;17.65;;;;;;;1.27;58.46;94430.91;1641056;84;21128;-62
2022/04/04 06:35:59;;;;;;;24.37;15.80;;;;;;;1.40;58.29;94436.06;1658556;84;21112;-59
2022/04/04 06:38:27;;;;;;;18.50;14.68;;;;;;;1.51;56.95;94441.42;1647271;85;21335;-60
2022/04/04 06:40:55;;;;;;;26.57;15.20;;;;;;;1.46;56.92;94435.05;1631562;84;21201;-57
2022/04/04 06:43:22;;;;;;;19.87;13.43;;;;;;;1.51;57.07;94435.41;1650634;84;21155;-60
2022/04/04 06:45:51;;;;;;;19.60;13.32;;;;;;;1.62;57.12;94432.62;1653585;84;20994;-59
2022/04/04 06:48:18;;;;;;;27.95;15.48;;;;;;;1.79;57.05;94442.00;1647228;84;21026;-62
2022/04/04 06:50:45;;;;;;;44.20;20.97;;;;;;;1.98;56.62;94431.97;1631842;85;21521;-60
2022/04/04 06:53:12;;;;;;;26.40;16.05;;;;;;;2.13;55.72;94429.33;1635294;85;22015;-60
2022/04/04 06:55:40;;;;;;;18.52;13.55;;;;;;;2.26;55.60;94435.78;1655806;83;21192;-59
2022/04/04 06:58:07;;;;;;;17.52;12.73;;;;;;;2.38;55.17;94427.15;1662796;85;21073;-61
2022/04/04 07:00:36;;;;;;;17.48;12.95;;;;;;;2.52;54.90;94427.02;1653244;85;21979;-60
2022/04/04 07:03:05;;;;;;;23.50;14.00;;;;;;;2.65;54.32;94428.05;1621149;85;21157;-60
2022/04/04 07:05:33;;;;;;;25.23;17.12;;;;;;;2.78;53.66;94429.05;1656361;84;22066;-60
2022/04/04 07:08:00;;;;;;;23.05;14.25;;;;;;;2.82;53.12;94424.34;1640415;84;21103;-59
2022/04/04 07:10:28;;;;;;;23.85;14.35;;;;;;;2.84;52.75;94426.09;1632841;84;22231;-59
2022/04/04 07:12:56;;;;;;;25.32;15.85;;;;;;;2.94;52.46;94421.11;1631270;85;21531;-63
2022/04/04 07:15:24;;;;;;;19.77;12.55;;;;;;;3.09;52.27;94429.27;1630316;85;21037;-64
2022/04/04 07:17:53;;;;;;;19.90;12.88;;;;;;;3.14;52.09;94427.45;1637396;83;21155;-62
2022/04/04 07:20:20;;;;;;;23.52;12.78;;;;;;;3.11;51.53;94424.20;1627122;84;21071;-62
2022/04/04 07:22:48;;;;;;;21.15;13.30;;;;;;;3.05;51.17;94419.05;1625351;86;21005;-60
2022/04/04 07:25:15;;;;;;;18.57;12.53;;;;;;;3.01;50.83;94418.30;1649258;84;21023;-62
2022/04/04 07:27:44;;;;;;;20.82;13.95;;;;;;;2.94;50.79;94419.75;1650171;84;21783;-61
2022/04/04 07:30:15;;;;;;;22.13;13.38;;;;;;;2.97;50.75;94417.57;1632438;85;21184;-60
2022/04/04 07:32:42;;;;;;;20.30;13.13;;;;;;;3.10;50.52;94422.09;1626399;85;21024;-61
2022/04/04 07:35:11;;;;;;;25.50;15.28;;;;;;;3.15;50.31;94423.56;1621691;85;21087;-61
2022/04/04 07:37:42;;;;;;;17.35;12.82;;;;;;;3.20;50.34;94423.13;1635478;84;21048;-60
2022/04/04 07:40:11;;;;;;;28.80;14.30;;;;;;;3.35;50.36;94424.46;1637342;84;21079;-61
2022/04/04 07:42:39;;;;;;;22.30;14.30;;;;;;;3.45;49.90;94419.48;1655953;84;21237;-60
2022/04/04 07:45:08;;;;;;;29.85;17.05;;;;;;;3.46;49.84;94417.70;1636734;85;21561;-60
2022/04/04 07:47:37;;;;;;;30.48;17.73;;;;;;;3.57;50.00;94417.75;1642750;84;21218;-61
2022/04/04 07:50:09;;;;;;;30.72;14.83;;;;;;;3.73;49.58;94415.77;1629871;84;21086;-59
2022/04/04 07:52:38;;;;;;;15.83;12.30;;;;;;;3.85;49.06;94422.76;1604390;86;21701;-60
2022/04/04 07:55:06;;;;;;;22.60;11.03;;;;;;;3.97;48.12;94419.47;1636445;84;21131;-61
2022/04/04 07:57:35;;;;;;;16.27;9.80;;;;;;;4.08;46.94;94417.33;1645314;84;21027;-58
2022/04/04 08:00:04;;;;;;;17.52;11.70;;;;;;;4.16;47.35;94411.97;1638893;84;21026;-61
2022/04/04 08:02:36;;;;;;;33.92;13.15;;;;;;;4.34;47.36;94416.52;1630601;85;21076;-59
2022/04/04 08:05:07;;;;;;;21.20;13.38;;;;;;;4.43;47.10;94420.07;1638548;84;22483;-61
2022/04/04 08:07:34;;;;;;;16.45;9.80;;;;;;;4.42;45.93;94419.29;1634590;84;21286;-60
2022/04/04 08:10:05;;;;;;;18.62;11.60;;;;;;;4.39;45.38;94424.20;1642490;84;21142;-60
2022/04/04 08:12:33;;;;;;;15.95;11.00;;;;;;;4.37;45.61;94426.58;1635806;84;21019;-60
2022/04/04 08:15:00;;;;;;;30.92;14.40;;;;;;;4.35;45.90;94415.34;1640496;84;21179;-59
2022/04/04 08:17:28;;;;;;;30.12;13.18;;;;;;;4.42;45.96;94415.81;1648119;84;21033;-59
2022/04/04 08:19:55;;;;;;;29.70;12.43;;;;;;;4.49;46.12;94413.73;1649625;83;21445;-60
2022/04/04 08:22:23;;;;;;;19.67;11.30;;;;;;;4.56;45.95;94420.41;1647228;84;21210;-62
2022/04/04 08:24:50;;;;;;;22.10;11.57;;;;;;;4.57;46.30;94417.86;1647567;85;21049;-64
2022/04/04 08:27:19;;;;;;;17.23;13.40;;;;;;;4.61;45.13;94411.75;1649104;83;21045;-58
2022/04/04 08:29:46;;;;;;;16.57;10.20;;;;;;;4.67;45.28;94416.13;1653698;84;22329;-58
2022/04/04 08:32:17;;;;;;;18.67;9.73;;;;;;;4.68;44.72;94410.27;1632981;85;22747;-60
2022/04/04 08:34:46;;;;;;;20.17;10.80;;;;;;;4.58;44.52;94413.95;1627618;85;20999;-58
2022/04/04 08:37:15;;;;;;;16.73;14.50;;;;;;;4.48;45.03;94416.28;1647317;84;21112;-60
2022/04/04 08:39:47;;;;;;;14.25;10.80;;;;;;;4.46;45.86;94411.81;1649971;84;21142;-62
2022/04/04 08:42:20;;;;;;;12.10;9.35;;;;;;;4.53;45.28;94410.92;1633739;85;21571;-66
2022/04/04 08:44:49;;;;;;;28.23;10.08;;;;;;;4.68;44.96;94408.13;1638002;85;21085;-60
2022/04/04 08:47:18;;;;;;;12.47;8.75;;;;;;;4.82;44.89;94403.17;1634092;86;21573;-62
2022/04/04 08:49:46;;;;;;;19.87;11.80;;;;;;;4.97;44.83;94398.98;1638727;85;21001;-58
2022/04/04 08:52:15;;;;;;;18.00;12.43;;;;;;;5.07;45.18;94393.94;1649292;85;20939;-61
2022/04/04 08:54:48;;;;;;;17.80;11.85;;;;;;;5.07;45.40;94395.88;1646651;84;21092;-64
2022/04/04 08:57:19;;;;;;;14.15;10.60;;;;;;;5.05;45.42;94389.50;1620269;86;21412;-64
2022/04/04 08:59:46;;;;;;;14.38;10.10;;;;;;;5.06;45.89;94392.98;1643342;85;20974;-63
2022/04/04 09:02:13;;;;;;;33.10;13.53;;;;;;;5.11;45.79;94388.42;1642661;84;20990;-62
2022/04/04 09:04:40;;;;;;;21.12;9.83;;;;;;;5.08;45.48;94394.69;1634329;84;21026;-62
2022/04/04 09:07:09;;;;;;;15.40;10.03;;;;;;;4.98;45.38;94393.71;1649693;84;21122;-62
2022/04/04 09:09:49;;;;;;;14.83;9.75;;;;;;;4.95;45.99;94383.66;1645003;84;21125;-63
2022/04/04 09:12:21;;;;;;;11.95;9.58;;;;;;;5.04;45.71;94389.33;1638678;85;21092;-62
2022/04/04 09:14:56;;;;;;;27.17;10.88;;;;;;;5.09;45.77;94391.55;1634225;85;21457;-62
2022/04/04 09:17:30;;;;;;;17.62;9.65;;;;;;;5.13;45.66;94379.97;1636391;85;21086;-62
2022/04/04 09:19:57;;;;;;;11.80;9.45;;;;;;;5.23;45.81;94377.63;1651871;84;21103;-59
2022/04/04 09:22:26;;;;;;;10.78;8.90;;;;;;;5.29;45.10;94387.62;1632787;86;21161;-68
2022/04/04 09:24:57;;;;;;;10.95;9.50;;;;;;;5.31;44.81;94370.83;1638573;85;21076;-62
2022/04/04 09:27:32;;;;;;;19.37;10.88;;;;;;;5.41;44.89;94373.32;1638611;85;21664;-61
2022/04/04 09:30:03;;;;;;;19.30;11.38;;;;;;;5.55;44.89;94369.50;1637319;83;21588;-63
2022/04/04 09:32:46;;;;;;;;;;;;;;;5.72;44.45;94360.93;1632115;85;21054;-62
2022/04/04 09:35:15;;;;;;;13.40;9.35;;;;;;;5.80;43.81;94356.11;1639365;85;21808;-60
2022/04/04 09:37:49;;;;;;;13.25;9.95;;;;;;;5.75;44.20;94357.34;1636339;84;21123;-61
2022/04/04 09:40:27;;;;;;;15.50;10.03;;;;;;;5.74;43.69;94353.66;1649226;84;21091;-62
2022/04/04 09:42:58;;;;;;;30.37;11.18;;;;;;;5.76;43.57;94348.58;1647247;85;21159;-62
2022/04/04 09:45:28;;;;;;;14.68;9.50;;;;;;;5.87;43.46;94345.01;1643311;85;21083;-61
2022/04/04 09:47:59;;;;;;;15.48;10.32;;;;;;;6.02;43.66;94347.58;1633881;85;22574;-61
2022/04/04 09:50:47;;;;;;;18.92;9.55;;;;;;;6.12;43.38;94339.73;1636924;85;21072;-62
2022/04/04 09:53:19;;;;;;;23.12;11.00;;;;;;;6.16;43.50;94330.84;1639731;84;21046;-60
2022/04/04 09:55:57;;;;;;;20.43;10.18;;;;;;;6.12;43.20;94328.19;1641380;84;21128;-59
2022/04/04 09:58:30;;;;;;;13.98;9.40;;;;;;;6.06;43.40;94323.67;1651786;85;21097;-59
2022/04/04 10:01:03;;;;;;;22.37;11.83;;;;;;;6.11;42.82;94330.76;1625261;85;21152;-58
2022/04/04 10:03:31;;;;;;;16.40;10.40;;;;;;;6.18;42.22;94322.37;1624761;86;21058;-60
2022/04/04 10:06:09;;;;;;;30.55;12.47;;;;;;;6.31;41.95;94326.56;1629482;85;21118;-62
2022/04/04 10:08:38;;;;;;;12.07;9.93;;;;;;;6.47;41.58;94321.03;1637513;84;20995;-63
2022/04/04 10:11:08;;;;;;;22.35;10.82;;;;;;;6.69;40.36;94316.55;1640504;86;21115;-62
2022/04/04 10:13:36;;;;;;;18.80;9.90;;;;;;;6.80;40.47;94321.89;1633146;85;21164;-60
2022/04/04 10:16:05;;;;;;;17.30;9.38;;;;;;;6.86;41.00;94308.45;1639655;85;21037;-62
2022/04/04 10:18:32;;;;;;;18.62;10.08;;;;;;;6.87;40.32;94305.89;1637463;85;21073;-64
2022/04/04 10:21:00;;;;;;;20.02;10.90;;;;;;;6.78;39.58;94307.11;1638687;85;20997;-62
2022/04/04 10:23:27;;;;;;;29.18;10.80;;;;;;;6.59;39.72;94300.61;1657066;85;21042;-62
2022/04/04 10:25:54;;;;;;;17.62;10.85;;;;;;;6.50;38.76;94300.45;1642011;86;21263;-61
2022/04/04 10:28:31;;;;;;;19.87;10.80;;;;;;;6.52;38.90;94294.57;1626674;85;21142;-59
2022/04/04 10:31:16;;;;;;;21.90;10.85;;;;;;;6.81;39.66;94294.72;1640624;84;21463;-62
2022/04/04 10:33:45;;;;;;;18.25;11.68;;;;;;;7.33;40.09;94290.41;1667440;84;21084;-61
2022/04/04 10:36:16;;;;;;;12.88;9.93;;;;;;;7.71;39.02;94293.16;1654602;84;21022;-61
2022/04/04 10:38:54;;;;;;;15.98;9.78;;;;;;;7.72;38.40;94284.48;1637276;85;21553;-60
2022/04/04 10:41:30;;;;;;;13.35;8.85;;;;;;;7.59;38.72;94281.02;1662691;84;21214;-60
2022/04/04 10:43:58;;;;;;;11.40;10.18;;;;;;;7.32;37.01;94284.77;1653691;84;21089;-61
2022/04/04 10:46:26;;;;;;;25.65;10.32;;;;;;;7.15;37.56;94286.08;1657899;85;21149;-62
2022/04/04 10:49:03;;;;;;;15.85;9.13;;;;;;;7.19;38.27;94282.63;1657562;84;20950;-60
2022/04/04 10:51:36;;;;;;;11.55;9.10;;;;;;;7.31;37.85;94292.07;1640062;86;21233;-61
2022/04/04 10:54:10;;;;;;;13.00;9.03;;;;;;;7.42;37.30;94278.23;1655536;84;21153;-60
2022/04/04 10:56:45;;;;;;;20.57;10.72;;;;;;;7.48;38.18;94279.20;1659850;84;21088;-61
2022/04/04 10:59:24;;;;;;;24.67;10.00;;;;;;;7.62;37.93;94289.72;1658168;84;21061;-60
2022/04/04 11:01:53;;;;;;;49.63;10.78;;;;;;;7.63;37.62;94284.40;1654802;85;21073;-60
2022/04/04 11:04:30;;;;;;;17.70;10.28;;;;;;;7.55;37.42;94273.50;1637131;85;21170;-60
2022/04/04 11:10:07;;;;;;;11.88;9.28;;;;;;;7.24;37.23;94284.84;1642983;84;21066;-61
2022/04/04 11:13:09;;;;;;;49.75;11.57;;;;;;;7.08;37.53;94267.15;1647106;84;20961;-63
2022/04/04 11:15:55;;;;;;;25.32;10.03;;;;;;;7.12;38.45;94270.54;1643506;84;21152;-65
2022/04/04 11:18:32;;;;;;;18.70;9.55;;;;;;;7.27;38.14;94276.34;1635204;85;21780;-64
2022/04/04 11:21:00;;;;;;;24.25;9.18;;;;;;;7.63;37.38;94280.30;1639857;85;21053;-65
2022/04/04 11:23:34;;;;;;;12.80;9.50;;;;;;;7.91;36.29;94278.00;1652905;84;21047;-60
2022/04/04 11:25:58;;;;;;;17.77;9.65;;;;;;;7.98;35.61;94270.94;1617594;86;21098;-61
2022/04/04 11:28:35;;;;;;;14.85;9.70;;;;;;;8.12;36.09;94258.14;1647330;84;21081;-63
2022/04/04 11:31:11;;;;;;;17.23;12.82;;;;;;;8.24;36.35;94275.16;1664077;83;21291;-60
2022/04/04 11:33:48;;;;;;;15.98;10.25;;;;;;;8.25;36.26;94267.09;1631037;85;21959;-61
2022/04/04 11:36:27;;;;;;;15.10;9.05;;;;;;;8.45;36.84;94262.71;1652508;85;21082;-62
2022/04/04 11:38:59;;;;;;;25.15;9.40;;;;;;;8.50;35.91;94265.66;1653880;84;21471;-60
2022/04/04 11:41:25;;;;;;;31.55;10.18;;;;;;;8.34;35.44;94273.27;1618961;86;21076;-63
2022/04/04 11:43:56;;;;;;;17.70;10.40;;;;;;;7.93;35.71;94257.81;1647560;84;21181;-59
2022/04/04 11:46:23;;;;;;;15.48;10.03;;;;;;;7.48;37.52;94250.47;1652318;84;21526;-61